Weather reports worldwide

Advertisment
Berlin/Tempelhof, Germany (10384): temperature & dewpoint: 10.08.2018 13:00:00 - 16.08.2018 13:00:00 (CEST)Berlin/Tempelhof, Germany (10384): temperature 5cm & temperature -5cm: 10.08.2018 13:00:00 - 16.08.2018 13:00:00 (CEST)Berlin/Tempelhof, Germany (10384): temperature -20cm & temperature -100cm: 10.08.2018 13:00:00 - 16.08.2018 13:00:00 (CEST)Berlin/Tempelhof, Germany (10384): wind speed & gusts: 10.08.2018 13:00:00 - 16.08.2018 13:00:00 (CEST)Berlin/Tempelhof, Germany (10384): wind direction: 10.08.2018 13:00:00 - 16.08.2018 13:00:00 (CEST)Berlin/Tempelhof, Germany (10384): reduced air pressure: 10.08.2018 13:00:00 - 16.08.2018 13:00:00 (CEST)Berlin/Tempelhof, Germany (10384): sunshine duration: 10.08.2018 13:00:00 - 16.08.2018 13:00:00 (CEST)Berlin/Tempelhof, Germany (10384): precipitation: 10.08.2018 13:00:00 - 16.08.2018 13:00:00 (CEST)
Date & Time tt [°C] td [°C] tt 5cm [°C] tt -5cm [°C] tt -20cm [°C] tt -100cm [°C] ff [km/h] ff [kn] fx [km/h] fx [kn] dd ppp [hPa] sd [min] rr [mm]
16.08.2018 13:00:00 27,2 11,3 34,8 28,3 21,4 19,9 12 6 27 14 SSW 1017,7 60 0,0
16.08.2018 12:00:00 26,2 11,1 33,0 25,6 21,2 19,9 13 7 23 12 S 1018,2 60 0,0
16.08.2018 11:00:00 24,5 12,1 29,4 23,0 21,1 19,9 11 6 21 11 SSE 1018,7 60 0,0
16.08.2018 10:00:00 22,9 13,4 26,3 20,7 21,2 19,9 11 6 17 9 S 1019,2 60 0,0
16.08.2018 09:00:00 21,1 13,5 22,7 19,0 21,3 19,9 7 4 12 7 SSE 1019,2 60 0,0
16.08.2018 08:00:00 18,3 12,9 18,0 18,1 21,5 19,9 5 3 9 5 S 1019,5 60 0,0
16.08.2018 07:00:00 15,2 13,0 11,3 17,9 21,7 19,9 3 2 5 3 SE 1019,7 28 0,0
16.08.2018 06:00:00 14,3 12,3 7,5 18,2 21,9 19,9 1 1 3 2 SSE 1019,6 0 0,0
16.08.2018 05:00:00 14,6 12,1 7,8 18,6 22,1 19,9 2 1 4 2 ENE 1019,6 0 0,0
16.08.2018 04:00:00 15,3 12,5 8,2 19,1 22,3 19,9 0 0 5 3 N 1019,7 0 0,0
16.08.2018 03:00:00 15,8 12,8 8,5 19,6 22,5 19,9 0 0 4 2 N 1019,8 0 0,0
16.08.2018 02:00:00 16,2 12,7 9,2 20,2 22,7 19,9 3 1 5 3 S 1019,7 0 0,0
16.08.2018 01:00:00 18,4 13,0 10,0 20,9 22,9 19,9 6 3 9 5 SSW 1019,6 0 0,0
16.08.2018 00:00:00 17,7 12,7 9,7 21,8 23,1 19,9 4 2 5 3 S 1019,6 0 0,0
15.08.2018 23:00:00 18,8 12,7 10,5 22,8 23,3 19,9 2 1 5 3 ENE 1019,4 0 0,0
15.08.2018 22:00:00 19,4 11,9 11,7 24,2 23,3 19,9 5 3 13 7 NW 1019,3 0 0,0
15.08.2018 21:00:00 21,0 11,9 18,0 25,5 23,3 19,9 12 6 19 10 WNW 1019,0 0 0,0
15.08.2018 20:00:00 23,0 13,1 23,2 26,5 23,3 19,9 11 6 18 10 NNW 1018,4 6 0,0
15.08.2018 19:00:00 23,3 12,8 23,5 27,4 23,2 19,9 14 7 21 11 NNW 1018,3 13 0,0
15.08.2018 18:00:00 23,8 11,8 24,5 28,1 23,0 19,9 14 8 30 16 W 1018,4 0 0,0
15.08.2018 17:00:00 24,9 11,5 28,9 28,8 22,8 19,9 19 10 31 17 NW 1018,3 5 0,0
15.08.2018 16:00:00 25,4 11,3 29,2 28,4 22,6 19,9 15 8 29 16 W 1018,0 33 0,0
15.08.2018 15:00:00 23,5 12,3 24,9 28,4 22,4 20,0 14 7 23 12 WNW 1018,3 4 0,0
15.08.2018 14:00:00 23,8 12,3 28,9 28,1 22,1 20,0 12 7 30 16 W 1018,3 13 0,0
15.08.2018 13:00:00 22,8 12,8 25,6 27,5 21,9 20,0 17 9 31 17 WNW 1018,5 25 0,0
15.08.2018 12:00:00 22,5 12,7 27,7 25,3 21,8 20,0 16 9 33 18 WNW 1018,3 53 0,0
15.08.2018 11:00:00 21,4 12,0 26,0 23,1 21,8 20,0 20 11 36 20 WNW 1018,5 52 0,0
15.08.2018 10:00:00 20,3 12,7 23,2 21,5 21,8 20,0 19 10 32 17 WNW 1017,9 47 0,0
15.08.2018 09:00:00 18,1 13,5 19,0 20,5 21,9 20,0 14 8 27 15 W 1017,5 22 0,0
15.08.2018 08:00:00 17,3 13,6 17,7 20,3 22,0 20,0 16 8 30 16 W 1017,0 0 0,0
15.08.2018 07:00:00 17,2 13,8 16,9 20,4 22,1 20,0 18 10 27 15 W 1016,5 0 0,0
15.08.2018 06:00:00 17,6 13,9 17,1 20,5 22,3 20,0 16 8 31 17 W 1015,9 0 0,0
15.08.2018 05:00:00 17,7 13,9 17,2 20,7 22,4 20,0 18 10 29 15 WNW 1015,3 0 0,0
15.08.2018 04:00:00 18,0 14,5 17,3 20,9 22,5 20,0 17 9 35 19 W 1015,2 0 0,0
15.08.2018 03:00:00 18,2 14,8 17,7 21,2 22,6 20,0 20 11 36 19 WNW 1014,7 0 0,0
15.08.2018 02:00:00 18,5 15,3 17,9 21,4 22,8 20,0 18 10 29 15 W 1014,6 0 0,0
15.08.2018 01:00:00 18,8 15,4 17,9 21,9 22,9 20,0 15 8 31 17 W 1014,4 0 0,0
15.08.2018 00:00:00 19,3 15,6 18,8 22,3 23,0 20,0 20 11 34 18 W 1013,9 0 0,0
14.08.2018 23:00:00 19,3 15,7 18,6 22,8 23,2 20,0 23 12 40 21 W 1013,4 0 0,0
14.08.2018 22:00:00 19,8 16,0 19,2 23,4 23,3 20,0 21 11 34 18 W 1012,9 0 0,0
14.08.2018 21:00:00 20,4 16,4 19,7 24,2 23,3 20,0 17 9 27 15 W 1012,3 0 0,0
14.08.2018 20:00:00 20,6 16,7 19,5 25,5 23,2 20,0 12 6 29 16 WSW 1011,4 35 0,0
14.08.2018 19:00:00 20,2 16,4 19,5 27,0 23,1 20,0 16 9 40 22 WSW 1011,2 16 0,7
14.08.2018 18:00:00 24,4 13,5 27,7 27,6 23,0 20,0 20 11 33 18 SW 1010,6 39 0,0
14.08.2018 17:00:00 23,7 12,8 24,7 27,5 22,9 20,0 23 13 36 19 W 1010,5 16 0,0
14.08.2018 16:00:00 23,9 12,9 27,2 26,3 22,7 20,1 20 11 34 18 WSW 1010,3 17 0,0
14.08.2018 15:00:00 22,9 12,3 24,0 26,6 22,6 20,1 19 10 31 17 WSW 1010,7 0 0,0
14.08.2018 14:00:00 23,2 12,0 25,7 26,5 22,4 20,1 19 10 35 19 WSW 1010,3 3 0,0
14.08.2018 13:00:00 22,9 12,5 26,2 25,9 22,3 20,1 17 9 34 18 WSW 1010,2 6 0,0
14.08.2018 12:00:00 23,4 13,0 27,4 24,9 22,2 20,1 18 10 31 17 WSW 1010,1 23 0,0
14.08.2018 11:00:00 21,5 13,2 23,4 23,8 22,2 20,1 18 10 31 17 W 1010,1 23 0,0
14.08.2018 10:00:00 21,3 13,3 23,8 22,1 22,2 20,1 20 11 33 18 W 1009,9 58 0,0
14.08.2018 09:00:00 19,8 13,5 21,2 20,9 22,4 20,1 20 11 34 18 W 1009,6 39 0,0
14.08.2018 08:00:00 18,7 13,9 19,0 20,5 22,5 20,1 10 5 16 9 WSW 1009,4 58 0,0
14.08.2018 07:00:00 18,0 13,6 16,6 20,6 22,7 20,1 10 5 19 10 WSW 1008,9 10 0,0
14.08.2018 06:00:00 18,1 13,7 16,3 20,9 22,8 20,1 12 7 27 15 W 1008,4 0 0,0
14.08.2018 05:00:00 18,5 13,6 16,6 21,3 23,0 20,1 11 6 21 11 WSW 1008,1 0 0,0
14.08.2018 04:00:00 18,9 14,0 16,8 21,7 23,1 20,1 12 6 20 11 WSW 1007,7 0 0,0
14.08.2018 03:00:00 19,5 14,6 17,6 22,0 23,3 20,1 12 6 20 11 WSW 1007,6 0 0,0
14.08.2018 02:00:00 19,9 14,8 17,5 22,4 23,5 20,1 9 5 16 8 SW 1007,3 0 0,0
14.08.2018 01:00:00 20,0 15,0 17,2 23,0 23,6 20,1 7 4 12 7 SSW 1007,4 0 0,0
14.08.2018 00:00:00 20,4 15,1 17,6 23,6 23,8 20,1 7 4 12 7 SSW 1007,4 0 0,0
13.08.2018 23:00:00 20,8 14,8 17,9 24,3 23,9 20,1 7 4 17 9 S 1007,6 0 0,0
13.08.2018 22:00:00 22,0 14,3 19,7 25,1 24,0 20,1 9 5 21 11 SSW 1007,3 0 0,0
13.08.2018 21:00:00 22,9 13,9 21,3 26,0 24,1 20,1 13 7 25 13 SW 1007,2 0 0,0
13.08.2018 20:00:00 23,3 13,6 22,0 27,0 24,1 20,1 7 4 18 10 ESE 1006,7 0 0,0
13.08.2018 19:00:00 24,5 12,6 22,2 28,5 24,0 20,1 11 6 41 22 SW 1007,2 0 0,0
13.08.2018 18:00:00 26,6 9,9 26,2 30,0 23,8 20,2 29 15 46 25 W 1007,1 0 0,0
13.08.2018 17:00:00 29,6 7,5 29,9 31,4 23,5 20,2 21 11 40 22 W 1006,2 0 0,0
13.08.2018 16:00:00 30,9 3,7 31,9 32,8 23,1 20,2 10 5 21 11 W 1006,1 4 0,0
13.08.2018 15:00:00 31,2 3,9 36,6 33,1 22,6 20,2 4 2 21 11 NNW 1006,2 30 0,0
13.08.2018 14:00:00 31,4 5,0 39,7 31,6 22,2 20,2 14 7 23 13 SSW 1006,8 60 0,0
13.08.2018 13:00:00 30,2 5,3 36,2 29,2 21,9 20,2 9 5 21 11 S 1007,1 60 0,0
13.08.2018 12:00:00 29,8 6,2 36,1 26,2 21,7 20,2 7 4 20 11 S 1007,6 55 0,0
13.08.2018 11:00:00 27,7 8,0 32,8 23,7 21,6 20,2 7 4 16 8 SSE 1008,1 60 0,0
13.08.2018 10:00:00 24,6 8,7 27,5 20,9 21,7 20,2 6 3 11 6 SSE 1008,2 60 0,0
13.08.2018 09:00:00 21,2 8,4 23,5 19,0 21,8 20,2 5 3 10 5 S 1008,7 60 0,0
13.08.2018 08:00:00 18,6 8,5 18,0 18,0 22,0 20,2 7 4 13 7 SSE 1009,0 60 0,0
13.08.2018 07:00:00 16,1 9,4 10,0 17,9 22,3 20,2 5 3 8 4 ESE 1009,0 41 0,0
13.08.2018 06:00:00 14,2 8,7 5,0 18,4 22,6 20,2 4 2 6 3 E 1009,0 0 0,0
13.08.2018 05:00:00 14,6 8,3 5,1 19,0 22,8 20,2 2 1 4 2 ESE 1009,7 0 0,0
13.08.2018 04:00:00 16,0 8,7 6,5 19,6 23,1 20,2 4 2 7 4 ESE 1010,0 0 0,0
13.08.2018 03:00:00 16,1 8,4 7,7 20,2 23,3 20,2 5 3 8 4 ESE 1010,5 0 0,0
13.08.2018 02:00:00 16,4 7,9 8,1 20,9 23,6 20,3 4 2 6 3 SE 1011,0 0 0,0
13.08.2018 01:00:00 16,9 7,2 7,8 21,8 23,8 20,3 3 1 5 3 ESE 1011,3 0 0,0
13.08.2018 00:00:00 18,2 6,5 9,5 22,8 24,0 20,3 4 2 6 4 SE 1011,8 0 0,0
12.08.2018 23:00:00 18,6 5,3 10,7 24,0 24,2 20,3 0 0 4 2 N 1012,1 0 0,0
12.08.2018 22:00:00 19,8 5,5 11,2 25,6 24,3 20,3 3 1 5 3 NNW 1012,3 0 0,0
12.08.2018 21:00:00 23,8 3,6 14,3 27,4 24,3 20,3 5 3 12 7 S 1012,6 0 0,0
12.08.2018 20:00:00 25,8 2,4 22,7 29,3 24,2 20,3 7 4 21 11 SW 1012,7 26 0,0
12.08.2018 19:00:00 26,8 2,2 27,5 31,0 24,0 20,3 10 5 23 13 WSW 1013,1 60 0,0
12.08.2018 18:00:00 27,3 2,5 30,0 32,0 23,6 20,3 12 7 26 14 WSW 1013,6 60 0,0
12.08.2018 17:00:00 26,9 2,9 31,2 32,6 23,2 20,3 16 9 29 16 SW 1014,4 60 0,0
12.08.2018 16:00:00 26,8 4,0 33,5 32,3 22,8 20,3 14 7 31 17 SW 1015,2 60 0,0
12.08.2018 15:00:00 25,9 4,0 33,0 31,3 22,4 20,3 18 10 38 21 SW 1016,1 60 0,0
12.08.2018 14:00:00 25,7 5,2 32,0 29,7 22,0 20,4 16 9 32 17 W 1016,6 60 0,0
12.08.2018 13:00:00 24,1 6,3 30,7 27,8 21,7 20,4 16 9 35 19 WSW 1017,5 57 0,0
12.08.2018 12:00:00 23,2 6,1 28,7 25,1 21,6 20,4 14 8 34 18 WSW 1018,4 60 0,0
12.08.2018 11:00:00 21,3 8,0 26,4 22,7 21,5 20,4 12 6 28 15 SSW 1018,9 60 0,0
12.08.2018 10:00:00 19,6 8,7 23,2 20,3 21,6 20,4 11 6 19 10 SW 1019,3 60 0,0
12.08.2018 09:00:00 17,8 9,0 19,7 18,7 21,7 20,4 10 5 16 8 SW 1019,6 60 0,0
12.08.2018 08:00:00 15,5 8,7 16,0 17,9 21,9 20,4 9 5 15 8 SW 1020,0 60 0,0
12.08.2018 07:00:00 13,3 8,2 11,9 17,8 22,1 20,4 11 6 19 10 SW 1020,5 43 0,0
12.08.2018 06:00:00 12,8 8,1 10,3 18,0 22,3 20,4 9 5 14 8 SW 1020,4 0 0,0
12.08.2018 05:00:00 13,7 9,2 10,0 18,4 22,6 20,4 9 5 14 8 SSW 1020,3 0 0,0
12.08.2018 04:00:00 14,1 8,8 7,5 19,1 22,8 20,4 6 3 14 8 W 1020,3 0 0,0
12.08.2018 03:00:00 14,8 8,9 12,0 19,7 23,0 20,4 10 6 19 11 W 1020,5 0 0,0
12.08.2018 02:00:00 15,3 8,4 12,3 20,3 23,2 20,4 11 6 24 13 W 1020,6 0 0,0
12.08.2018 01:00:00 16,1 8,3 13,9 21,0 23,4 20,5 15 8 23 13 WNW 1020,7 0 0,0
12.08.2018 00:00:00 16,7 7,8 14,5 21,8 23,6 20,5 15 8 24 13 W 1020,9 0 0,0
11.08.2018 23:00:00 17,2 7,5 14,5 22,7 23,8 20,5 14 7 25 13 W 1020,8 0 0,0
11.08.2018 22:00:00 18,1 7,2 16,4 23,9 23,9 20,5 17 9 30 16 W 1020,5 0 0,0
11.08.2018 21:00:00 18,8 8,0 17,1 25,2 23,9 20,5 16 9 33 18 WNW 1020,2 0 0,0
11.08.2018 20:00:00 20,7 6,9 20,0 26,8 23,9 20,5 18 10 42 23 WNW 1019,5 30 0,0
11.08.2018 19:00:00 22,3 4,5 23,1 28,3 23,7 20,5 22 12 47 26 W 1018,9 59 0,0
11.08.2018 18:00:00 22,7 3,9 24,5 29,2 23,5 20,5 28 15 49 26 W 1018,7 55 0,0
11.08.2018 17:00:00 22,9 4,4 25,4 29,4 23,2 20,5 27 14 48 26 W 1018,8 58 0,0
11.08.2018 16:00:00 23,8 5,3 29,0 28,8 22,9 20,5 23 12 53 28 W 1019,0 51 0,0
11.08.2018 15:00:00 23,0 6,5 27,7 27,4 22,7 20,5 25 14 47 25 W 1019,2 40 0,0
11.08.2018 14:00:00 21,8 4,8 25,0 25,8 22,6 20,5 29 16 48 26 W 1019,6 36 0,0
11.08.2018 13:00:00 21,0 7,7 22,2 24,6 22,4 20,5 23 12 39 21 W 1019,5 4 0,0
11.08.2018 12:00:00 21,9 8,2 24,7 23,4 22,4 20,5 19 10 34 18 W 1019,6 14 0,0
11.08.2018 11:00:00 21,2 7,4 23,0 22,1 22,4 20,5 23 12 36 20 W 1019,6 1 0,0
11.08.2018 10:00:00 20,2 7,9 22,2 20,9 22,5 20,5 13 7 23 12 WSW 1019,3 13 0,0
11.08.2018 09:00:00 18,8 8,2 21,0 19,8 22,6 20,5 13 7 19 11 SW 1019,2 4 0,0
11.08.2018 08:00:00 16,9 8,0 17,0 19,3 22,8 20,5 11 6 19 10 SSW 1019,3 4 0,0
11.08.2018 07:00:00 16,7 8,0 14,9 19,2 23,0 20,5 8 4 19 10 S 1019,2 24 0,0
11.08.2018 06:00:00 15,8 9,3 10,0 19,6 23,2 20,5 5 3 11 6 S 1019,6 0 0,0
11.08.2018 05:00:00 16,3 9,8 14,5 19,8 23,4 20,5 5 3 13 7 S 1019,8 0 0,0
11.08.2018 04:00:00 17,1 9,6 14,3 20,2 23,6 20,6 10 5 16 9 SSE 1020,4 0 0,0
11.08.2018 03:00:00 18,4 9,1 15,6 20,5 23,8 20,6 8 5 18 10 SSE 1020,8 0 0,0
11.08.2018 02:00:00 18,7 8,2 16,6 20,6 24,1 20,6 10 6 16 8 SE 1021,4 0 0,0
11.08.2018 01:00:00 18,4 8,5 15,6 20,9 24,3 20,6 11 6 16 9 SE 1021,7 0 0,0
11.08.2018 00:00:00 18,4 8,1 12,9 21,6 24,6 20,6 9 5 12 7 SE 1021,8 0 0,0
10.08.2018 23:00:00 18,8 7,4 8,7 22,7 24,8 20,6 8 5 11 6 SE 1022,0 0 0,0
10.08.2018 22:00:00 19,2 7,2 9,4 24,2 25,0 20,6 0 0 6 4 N 1022,0 0 0,0
10.08.2018 21:00:00 21,6 6,0 14,7 25,9 25,0 20,6 6 3 21 11 WSW 1021,9 1 0,0
10.08.2018 20:00:00 22,5 5,9 21,4 27,6 25,0 20,6 14 8 27 14 WNW 1021,5 60 0,0
10.08.2018 19:00:00 23,8 6,2 24,9 29,0 24,9 20,6 17 9 28 15 W 1021,4 60 0,0
10.08.2018 18:00:00 24,2 5,9 26,7 29,7 24,7 20,6 16 9 31 17 W 1021,5 54 0,0
10.08.2018 17:00:00 23,7 7,5 25,7 30,3 24,4 20,6 19 10 35 19 WNW 1021,8 37 0,0
10.08.2018 16:00:00 23,9 8,2 29,4 29,8 24,2 20,5 21 11 34 19 W 1021,9 50 0,0
10.08.2018 15:00:00 23,6 8,9 28,2 27,6 24,1 20,6 19 10 33 18 W 1021,7 36 0,0
10.08.2018 14:00:00 22,4 11,0 27,0 26,2 24,1 20,6 21 11 36 19 WNW 1021,5 31 0,0
10.08.2018 13:00:00 21,6 10,0 26,6 24,6 24,1 20,5 25 13 36 20 WSW 1021,3 33 0,0

tt = temperature
td = dewpoint
tt 5cm = temperature 5cm
tt -5cm = temperature -5cm
tt -20cm = temperature -20cm
tt -100cm = temperature -100cm
ff = wind speed
fx = gusts
dd = wind direction
ppp = reduced air pressure
sd = sunshine duration
rr = precipitation

Next stations